Stewartsville, Ohio
Current Conditions -  °F | °C
As of 1:01 PM on Saturday 22 Nov 2014 (Local Time) from KHLG Reporting Station
Overcast Overcast  
Wind Chill: 31°   Ceiling: 4900
Heat Index: 39°   Visibility: 10mi
Dew Point: 24°   Wind: 14mph
Humidity: 55%   Direction: 200°SSW
Pressure: 30.21"   Gusts: NA
Location:  39.9375°N, 80.8976°W
Report Text: KHLG 221801Z 20012KT 10SM SCT026 BKN049 OVC060 04/M04 A3021 RMK AO2 T00391044
Loading
Personal Weather Stations






























Interactive Weather Map New forecast layout! Learn more

10-Day Weather Forecast

Advertisements
Track Severe Weather on mobile